sensor_id;sensor_type;location;lat;lon;timestamp;P1;durP1;ratioP1;P2;durP2;ratioP2
47273;SDS011;33007;49.082;19.306;2022-09-21T00:00:28;8.13;;;6.25;;
47273;SDS011;33007;49.082;19.306;2022-09-21T00:02:54;8.52;;;5.90;;
47273;SDS011;33007;49.082;19.306;2022-09-21T00:05:21;6.43;;;5.72;;
47273;SDS011;33007;49.082;19.306;2022-09-21T00:07:47;8.50;;;5.30;;
47273;SDS011;33007;49.082;19.306;2022-09-21T00:10:13;7.60;;;5.35;;
47273;SDS011;33007;49.082;19.306;2022-09-21T00:12:38;7.15;;;4.80;;
47273;SDS011;33007;49.082;19.306;2022-09-21T00:15:08;4.63;;;4.22;;
47273;SDS011;33007;49.082;19.306;2022-09-21T00:17:35;6.53;;;5.00;;
47273;SDS011;33007;49.082;19.306;2022-09-21T00:20:02;6.75;;;4.75;;
47273;SDS011;33007;49.082;19.306;2022-09-21T00:22:29;5.43;;;4.50;;
47273;SDS011;33007;49.082;19.306;2022-09-21T00:24:56;5.60;;;4.63;;
47273;SDS011;33007;49.082;19.306;2022-09-21T00:27:22;6.68;;;4.53;;
47273;SDS011;33007;49.082;19.306;2022-09-21T00:29:54;6.10;;;5.03;;
47273;SDS011;33007;49.082;19.306;2022-09-21T00:32:20;4.85;;;4.22;;
47273;SDS011;33007;49.082;19.306;2022-09-21T00:34:46;5.53;;;4.60;;
47273;SDS011;33007;49.082;19.306;2022-09-21T00:37:12;6.15;;;4.72;;
47273;SDS011;33007;49.082;19.306;2022-09-21T00:39:37;6.57;;;5.20;;
47273;SDS011;33007;49.082;19.306;2022-09-21T00:42:08;6.88;;;5.57;;
47273;SDS011;33007;49.082;19.306;2022-09-21T00:44:35;6.70;;;5.88;;
47273;SDS011;33007;49.082;19.306;2022-09-21T00:47:10;8.57;;;5.72;;
47273;SDS011;33007;49.082;19.306;2022-09-21T00:49:39;9.05;;;6.05;;
47273;SDS011;33007;49.082;19.306;2022-09-21T00:52:07;6.80;;;5.85;;
47273;SDS011;33007;49.082;19.306;2022-09-21T00:55:12;7.78;;;5.85;;
47273;SDS011;33007;49.082;19.306;2022-09-21T00:57:40;25.20;;;6.63;;
47273;SDS011;33007;49.082;19.306;2022-09-21T01:00:08;8.57;;;5.85;;
47273;SDS011;33007;49.082;19.306;2022-09-21T01:02:35;8.55;;;7.50;;
47273;SDS011;33007;49.082;19.306;2022-09-21T01:05:03;9.77;;;8.18;;
47273;SDS011;33007;49.082;19.306;2022-09-21T01:07:30;9.50;;;8.02;;
47273;SDS011;33007;49.082;19.306;2022-09-21T01:10:02;8.38;;;7.57;;
47273;SDS011;33007;49.082;19.306;2022-09-21T01:18:11;6.05;;;5.32;;
47273;SDS011;33007;49.082;19.306;2022-09-21T01:29:42;5.75;;;5.15;;
47273;SDS011;33007;49.082;19.306;2022-09-21T01:32:23;6.25;;;4.88;;
47273;SDS011;33007;49.082;19.306;2022-09-21T01:35:00;5.22;;;4.72;;
47273;SDS011;33007;49.082;19.306;2022-09-21T01:37:49;5.18;;;4.47;;
47273;SDS011;33007;49.082;19.306;2022-09-21T01:40:30;7.32;;;4.75;;
47273;SDS011;33007;49.082;19.306;2022-09-21T01:42:58;6.57;;;4.55;;
47273;SDS011;33007;49.082;19.306;2022-09-21T01:45:29;5.75;;;4.38;;
47273;SDS011;33007;49.082;19.306;2022-09-21T01:47:59;5.53;;;4.25;;
47273;SDS011;33007;49.082;19.306;2022-09-21T01:50:30;6.03;;;4.50;;
47273;SDS011;33007;49.082;19.306;2022-09-21T01:53:04;5.25;;;4.40;;
47273;SDS011;33007;49.082;19.306;2022-09-21T01:55:47;9.13;;;4.50;;
47273;SDS011;33007;49.082;19.306;2022-09-21T02:00:43;4.40;;;3.58;;
47273;SDS011;33007;49.082;19.306;2022-09-21T02:03:13;5.13;;;4.00;;
47273;SDS011;33007;49.082;19.306;2022-09-21T02:05:46;4.82;;;4.30;;
47273;SDS011;33007;49.082;19.306;2022-09-21T02:08:11;4.78;;;4.15;;
47273;SDS011;33007;49.082;19.306;2022-09-21T02:10:44;6.15;;;4.22;;
47273;SDS011;33007;49.082;19.306;2022-09-21T02:13:13;6.20;;;4.30;;
47273;SDS011;33007;49.082;19.306;2022-09-21T02:21:04;6.28;;;4.13;;
47273;SDS011;33007;49.082;19.306;2022-09-21T02:23:59;5.10;;;4.38;;
47273;SDS011;33007;49.082;19.306;2022-09-21T02:27:03;5.28;;;4.00;;
47273;SDS011;33007;49.082;19.306;2022-09-21T02:35:00;5.30;;;4.18;;
47273;SDS011;33007;49.082;19.306;2022-09-21T02:37:35;5.10;;;4.60;;
47273;SDS011;33007;49.082;19.306;2022-09-21T02:42:40;4.88;;;4.20;;
47273;SDS011;33007;49.082;19.306;2022-09-21T02:50:20;6.40;;;4.35;;
47273;SDS011;33007;49.082;19.306;2022-09-21T02:52:49;4.93;;;4.43;;
47273;SDS011;33007;49.082;19.306;2022-09-21T02:55:18;5.18;;;4.30;;
47273;SDS011;33007;49.082;19.306;2022-09-21T02:57:44;4.78;;;4.28;;
47273;SDS011;33007;49.082;19.306;2022-09-21T03:00:13;6.60;;;4.13;;
47273;SDS011;33007;49.082;19.306;2022-09-21T03:02:41;4.13;;;3.72;;
47273;SDS011;33007;49.082;19.306;2022-09-21T03:05:09;5.85;;;3.60;;
47273;SDS011;33007;49.082;19.306;2022-09-21T03:07:36;5.22;;;3.50;;
47273;SDS011;33007;49.082;19.306;2022-09-21T03:10:02;4.50;;;3.55;;
47273;SDS011;33007;49.082;19.306;2022-09-21T03:12:29;4.93;;;3.90;;
47273;SDS011;33007;49.082;19.306;2022-09-21T03:14:55;4.35;;;3.60;;
47273;SDS011;33007;49.082;19.306;2022-09-21T03:17:20;4.47;;;3.83;;
47273;SDS011;33007;49.082;19.306;2022-09-21T03:19:46;4.03;;;3.63;;
47273;SDS011;33007;49.082;19.306;2022-09-21T03:22:13;4.18;;;3.83;;
47273;SDS011;33007;49.082;19.306;2022-09-21T03:24:38;4.57;;;3.80;;
47273;SDS011;33007;49.082;19.306;2022-09-21T03:27:10;4.78;;;3.80;;
47273;SDS011;33007;49.082;19.306;2022-09-21T03:29:36;4.05;;;3.65;;
47273;SDS011;33007;49.082;19.306;2022-09-21T03:32:02;7.53;;;3.42;;
47273;SDS011;33007;49.082;19.306;2022-09-21T03:34:28;3.97;;;3.40;;
47273;SDS011;33007;49.082;19.306;2022-09-21T03:36:58;5.88;;;3.05;;
47273;SDS011;33007;49.082;19.306;2022-09-21T03:39:30;4.03;;;2.97;;
47273;SDS011;33007;49.082;19.306;2022-09-21T03:41:56;3.67;;;2.90;;
47273;SDS011;33007;49.082;19.306;2022-09-21T03:44:23;13.02;;;3.40;;
47273;SDS011;33007;49.082;19.306;2022-09-21T03:46:49;3.50;;;2.97;;
47273;SDS011;33007;49.082;19.306;2022-09-21T03:49:16;3.88;;;3.00;;
47273;SDS011;33007;49.082;19.306;2022-09-21T03:51:42;3.55;;;3.10;;
47273;SDS011;33007;49.082;19.306;2022-09-21T03:54:08;3.28;;;2.97;;
47273;SDS011;33007;49.082;19.306;2022-09-21T03:56:34;3.28;;;2.97;;
47273;SDS011;33007;49.082;19.306;2022-09-21T03:59:00;3.58;;;3.20;;
47273;SDS011;33007;49.082;19.306;2022-09-21T04:01:26;5.78;;;3.60;;
47273;SDS011;33007;49.082;19.306;2022-09-21T04:03:52;3.70;;;3.20;;
47273;SDS011;33007;49.082;19.306;2022-09-21T04:06:17;6.32;;;3.63;;
47273;SDS011;33007;49.082;19.306;2022-09-21T04:08:43;4.70;;;3.60;;
47273;SDS011;33007;49.082;19.306;2022-09-21T04:11:09;4.45;;;3.40;;
47273;SDS011;33007;49.082;19.306;2022-09-21T04:13:40;4.20;;;3.75;;
47273;SDS011;33007;49.082;19.306;2022-09-21T04:16:06;4.20;;;3.80;;
47273;SDS011;33007;49.082;19.306;2022-09-21T04:18:34;4.63;;;4.00;;
47273;SDS011;33007;49.082;19.306;2022-09-21T04:21:00;5.35;;;4.10;;
47273;SDS011;33007;49.082;19.306;2022-09-21T04:23:26;4.60;;;4.00;;
47273;SDS011;33007;49.082;19.306;2022-09-21T04:25:52;6.07;;;4.32;;
47273;SDS011;33007;49.082;19.306;2022-09-21T04:28:19;4.85;;;4.35;;
47273;SDS011;33007;49.082;19.306;2022-09-21T04:30:45;4.72;;;4.15;;
47273;SDS011;33007;49.082;19.306;2022-09-21T04:33:11;5.43;;;4.18;;
47273;SDS011;33007;49.082;19.306;2022-09-21T04:35:38;3.60;;;3.30;;
47273;SDS011;33007;49.082;19.306;2022-09-21T04:38:03;4.85;;;3.53;;
47273;SDS011;33007;49.082;19.306;2022-09-21T04:40:29;3.92;;;3.53;;
47273;SDS011;33007;49.082;19.306;2022-09-21T04:42:55;3.65;;;3.30;;
47273;SDS011;33007;49.082;19.306;2022-09-21T04:45:21;4.40;;;3.63;;
47273;SDS011;33007;49.082;19.306;2022-09-21T04:47:47;5.38;;;3.95;;
47273;SDS011;33007;49.082;19.306;2022-09-21T04:50:13;4.55;;;3.65;;
47273;SDS011;33007;49.082;19.306;2022-09-21T04:52:39;17.60;;;4.38;;
47273;SDS011;33007;49.082;19.306;2022-09-21T04:55:05;5.97;;;3.95;;
47273;SDS011;33007;49.082;19.306;2022-09-21T04:57:32;19.02;;;4.45;;
47273;SDS011;33007;49.082;19.306;2022-09-21T04:59:57;4.22;;;3.38;;
47273;SDS011;33007;49.082;19.306;2022-09-21T05:02:22;2.95;;;2.47;;
47273;SDS011;33007;49.082;19.306;2022-09-21T05:04:48;3.60;;;2.53;;
47273;SDS011;33007;49.082;19.306;2022-09-21T05:07:14;3.20;;;2.80;;
47273;SDS011;33007;49.082;19.306;2022-09-21T05:09:39;3.90;;;3.00;;
47273;SDS011;33007;49.082;19.306;2022-09-21T05:12:23;3.80;;;3.17;;
47273;SDS011;33007;49.082;19.306;2022-09-21T05:14:49;3.95;;;3.30;;
47273;SDS011;33007;49.082;19.306;2022-09-21T05:17:15;5.45;;;3.13;;
47273;SDS011;33007;49.082;19.306;2022-09-21T05:19:41;4.55;;;3.10;;
47273;SDS011;33007;49.082;19.306;2022-09-21T05:22:07;3.67;;;3.03;;
47273;SDS011;33007;49.082;19.306;2022-09-21T05:24:33;5.70;;;3.00;;
47273;SDS011;33007;49.082;19.306;2022-09-21T05:26:59;4.47;;;3.40;;
47273;SDS011;33007;49.082;19.306;2022-09-21T05:29:25;4.78;;;3.60;;
47273;SDS011;33007;49.082;19.306;2022-09-21T05:31:51;6.47;;;3.15;;
47273;SDS011;33007;49.082;19.306;2022-09-21T05:39:57;7.30;;;3.53;;
47273;SDS011;33007;49.082;19.306;2022-09-21T05:42:23;6.82;;;3.20;;
47273;SDS011;33007;49.082;19.306;2022-09-21T05:44:49;4.40;;;3.50;;
47273;SDS011;33007;49.082;19.306;2022-09-21T05:55:38;4.95;;;2.58;;
47273;SDS011;33007;49.082;19.306;2022-09-21T06:03:51;3.08;;;2.50;;
47273;SDS011;33007;49.082;19.306;2022-09-21T06:06:18;2.88;;;1.98;;
47273;SDS011;33007;49.082;19.306;2022-09-21T06:08:44;9.05;;;2.17;;
47273;SDS011;33007;49.082;19.306;2022-09-21T06:11:10;2.05;;;1.77;;
47273;SDS011;33007;49.082;19.306;2022-09-21T06:13:37;3.28;;;1.80;;
47273;SDS011;33007;49.082;19.306;2022-09-21T06:16:05;3.25;;;1.63;;
47273;SDS011;33007;49.082;19.306;2022-09-21T06:18:31;2.40;;;2.20;;
47273;SDS011;33007;49.082;19.306;2022-09-21T06:21:01;4.28;;;2.50;;
47273;SDS011;33007;49.082;19.306;2022-09-21T06:23:26;6.97;;;4.32;;
47273;SDS011;33007;49.082;19.306;2022-09-21T06:25:52;14.52;;;11.57;;
47273;SDS011;33007;49.082;19.306;2022-09-21T06:28:18;15.25;;;12.15;;
47273;SDS011;33007;49.082;19.306;2022-09-21T06:30:49;38.97;;;7.93;;
47273;SDS011;33007;49.082;19.306;2022-09-21T06:33:16;6.43;;;4.88;;
47273;SDS011;33007;49.082;19.306;2022-09-21T06:35:55;6.18;;;4.85;;
47273;SDS011;33007;49.082;19.306;2022-09-21T06:38:22;2.83;;;2.38;;
47273;SDS011;33007;49.082;19.306;2022-09-21T06:40:49;2.72;;;2.38;;
47273;SDS011;33007;49.082;19.306;2022-09-21T06:43:15;2.60;;;2.20;;
47273;SDS011;33007;49.082;19.306;2022-09-21T06:45:41;3.22;;;2.53;;
47273;SDS011;33007;49.082;19.306;2022-09-21T06:48:07;7.78;;;2.53;;
47273;SDS011;33007;49.082;19.306;2022-09-21T06:50:33;11.50;;;3.28;;
47273;SDS011;33007;49.082;19.306;2022-09-21T06:53:00;3.38;;;2.58;;
47273;SDS011;33007;49.082;19.306;2022-09-21T06:55:26;3.20;;;2.75;;
47273;SDS011;33007;49.082;19.306;2022-09-21T06:57:58;2.50;;;2.28;;
47273;SDS011;33007;49.082;19.306;2022-09-21T07:00:25;3.42;;;2.35;;
47273;SDS011;33007;49.082;19.306;2022-09-21T07:02:51;2.50;;;2.15;;
47273;SDS011;33007;49.082;19.306;2022-09-21T07:05:16;2.85;;;2.30;;
47273;SDS011;33007;49.082;19.306;2022-09-21T07:07:42;4.22;;;3.20;;
47273;SDS011;33007;49.082;19.306;2022-09-21T07:10:07;3.30;;;2.90;;
47273;SDS011;33007;49.082;19.306;2022-09-21T07:12:33;3.17;;;2.88;;
47273;SDS011;33007;49.082;19.306;2022-09-21T07:14:59;4.03;;;2.70;;
47273;SDS011;33007;49.082;19.306;2022-09-21T07:17:30;3.85;;;2.95;;
47273;SDS011;33007;49.082;19.306;2022-09-21T07:19:59;4.93;;;4.43;;
47273;SDS011;33007;49.082;19.306;2022-09-21T07:22:28;4.85;;;4.20;;
47273;SDS011;33007;49.082;19.306;2022-09-21T07:24:55;5.90;;;3.63;;
47273;SDS011;33007;49.082;19.306;2022-09-21T07:27:22;4.60;;;3.50;;
47273;SDS011;33007;49.082;19.306;2022-09-21T07:29:48;3.20;;;2.80;;
47273;SDS011;33007;49.082;19.306;2022-09-21T07:32:13;2.65;;;2.22;;
47273;SDS011;33007;49.082;19.306;2022-09-21T07:34:39;2.28;;;2.08;;
47273;SDS011;33007;49.082;19.306;2022-09-21T07:37:04;2.55;;;2.00;;
47273;SDS011;33007;49.082;19.306;2022-09-21T07:39:31;1.90;;;1.70;;
47273;SDS011;33007;49.082;19.306;2022-09-21T07:41:56;2.47;;;2.13;;
47273;SDS011;33007;49.082;19.306;2022-09-21T07:44:22;4.40;;;2.20;;
47273;SDS011;33007;49.082;19.306;2022-09-21T07:46:49;3.58;;;2.30;;
47273;SDS011;33007;49.082;19.306;2022-09-21T07:49:15;3.50;;;2.30;;
47273;SDS011;33007;49.082;19.306;2022-09-21T07:51:41;2.63;;;2.10;;
47273;SDS011;33007;49.082;19.306;2022-09-21T07:54:10;2.22;;;2.03;;
47273;SDS011;33007;49.082;19.306;2022-09-21T07:56:36;3.60;;;2.70;;
47273;SDS011;33007;49.082;19.306;2022-09-21T07:59:02;2.70;;;2.50;;
47273;SDS011;33007;49.082;19.306;2022-09-21T08:01:35;3.00;;;2.30;;
47273;SDS011;33007;49.082;19.306;2022-09-21T08:04:03;3.55;;;2.60;;
47273;SDS011;33007;49.082;19.306;2022-09-21T08:06:33;3.05;;;2.75;;
47273;SDS011;33007;49.082;19.306;2022-09-21T08:09:03;4.80;;;3.50;;
47273;SDS011;33007;49.082;19.306;2022-09-21T08:11:30;3.47;;;3.15;;
47273;SDS011;33007;49.082;19.306;2022-09-21T08:13:58;3.50;;;3.10;;
47273;SDS011;33007;49.082;19.306;2022-09-21T08:16:25;3.30;;;2.55;;
47273;SDS011;33007;49.082;19.306;2022-09-21T08:18:53;3.00;;;2.63;;
47273;SDS011;33007;49.082;19.306;2022-09-21T08:21:19;3.15;;;2.05;;
47273;SDS011;33007;49.082;19.306;2022-09-21T08:23:45;3.22;;;2.10;;
47273;SDS011;33007;49.082;19.306;2022-09-21T08:26:13;2.20;;;2.00;;
47273;SDS011;33007;49.082;19.306;2022-09-21T08:28:47;2.85;;;1.95;;
47273;SDS011;33007;49.082;19.306;2022-09-21T08:33:41;1.90;;;1.70;;
47273;SDS011;33007;49.082;19.306;2022-09-21T08:36:07;2.70;;;2.50;;
47273;SDS011;33007;49.082;19.306;2022-09-21T08:38:34;5.15;;;2.83;;
47273;SDS011;33007;49.082;19.306;2022-09-21T08:41:01;4.13;;;2.58;;
47273;SDS011;33007;49.082;19.306;2022-09-21T08:43:40;3.47;;;2.60;;
47273;SDS011;33007;49.082;19.306;2022-09-21T08:46:16;3.05;;;2.40;;
47273;SDS011;33007;49.082;19.306;2022-09-21T08:48:48;2.53;;;1.70;;
47273;SDS011;33007;49.082;19.306;2022-09-21T08:51:29;2.85;;;1.80;;
47273;SDS011;33007;49.082;19.306;2022-09-21T08:53:59;3.70;;;2.08;;
47273;SDS011;33007;49.082;19.306;2022-09-21T08:56:31;3.45;;;1.80;;
47273;SDS011;33007;49.082;19.306;2022-09-21T08:58:58;3.22;;;2.00;;
47273;SDS011;33007;49.082;19.306;2022-09-21T09:04:14;3.60;;;2.42;;
47273;SDS011;33007;49.082;19.306;2022-09-21T09:13:06;1.52;;;1.42;;
47273;SDS011;33007;49.082;19.306;2022-09-21T09:18:22;2.50;;;1.60;;
47273;SDS011;33007;49.082;19.306;2022-09-21T09:21:03;5.75;;;1.58;;
47273;SDS011;33007;49.082;19.306;2022-09-21T09:26:05;1.23;;;1.13;;
47273;SDS011;33007;49.082;19.306;2022-09-21T09:31:33;4.50;;;1.48;;
47273;SDS011;33007;49.082;19.306;2022-09-21T09:34:08;1.50;;;1.05;;
47273;SDS011;33007;49.082;19.306;2022-09-21T09:36:45;1.90;;;1.27;;
47273;SDS011;33007;49.082;19.306;2022-09-21T09:39:15;1.73;;;1.23;;
47273;SDS011;33007;49.082;19.306;2022-09-21T09:47:45;1.88;;;1.20;;
47273;SDS011;33007;49.082;19.306;2022-09-21T09:50:27;5.53;;;1.48;;
47273;SDS011;33007;49.082;19.306;2022-09-21T09:53:01;4.40;;;1.63;;
47273;SDS011;33007;49.082;19.306;2022-09-21T09:55:37;5.10;;;1.70;;
47273;SDS011;33007;49.082;19.306;2022-09-21T09:58:08;2.35;;;1.33;;
47273;SDS011;33007;49.082;19.306;2022-09-21T10:00:47;3.88;;;1.50;;
47273;SDS011;33007;49.082;19.306;2022-09-21T10:03:18;1.83;;;1.15;;
47273;SDS011;33007;49.082;19.306;2022-09-21T10:05:48;4.50;;;1.27;;
47273;SDS011;33007;49.082;19.306;2022-09-21T10:11:00;1.63;;;1.38;;
47273;SDS011;33007;49.082;19.306;2022-09-21T10:13:30;6.15;;;1.60;;
47273;SDS011;33007;49.082;19.306;2022-09-21T10:21:22;1.50;;;1.30;;
47273;SDS011;33007;49.082;19.306;2022-09-21T10:24:01;2.08;;;1.17;;
47273;SDS011;33007;49.082;19.306;2022-09-21T10:29:02;2.75;;;1.98;;
47273;SDS011;33007;49.082;19.306;2022-09-21T10:35:08;2.00;;;1.67;;
47273;SDS011;33007;49.082;19.306;2022-09-21T10:37:40;2.22;;;2.03;;
47273;SDS011;33007;49.082;19.306;2022-09-21T10:42:43;3.00;;;2.40;;
47273;SDS011;33007;49.082;19.306;2022-09-21T10:50:22;2.45;;;2.03;;
47273;SDS011;33007;49.082;19.306;2022-09-21T10:52:54;3.25;;;2.10;;
47273;SDS011;33007;49.082;19.306;2022-09-21T10:55:25;2.30;;;1.95;;
47273;SDS011;33007;49.082;19.306;2022-09-21T10:57:54;2.08;;;1.70;;
47273;SDS011;33007;49.082;19.306;2022-09-21T11:02:48;1.73;;;1.20;;
47273;SDS011;33007;49.082;19.306;2022-09-21T11:05:21;1.38;;;1.10;;
47273;SDS011;33007;49.082;19.306;2022-09-21T11:07:54;1.00;;;0.98;;
47273;SDS011;33007;49.082;19.306;2022-09-21T11:10:31;2.80;;;1.90;;
47273;SDS011;33007;49.082;19.306;2022-09-21T11:13:09;3.45;;;2.10;;
47273;SDS011;33007;49.082;19.306;2022-09-21T11:27:09;1.55;;;1.25;;
47273;SDS011;33007;49.082;19.306;2022-09-21T11:40:49;2.92;;;2.00;;
47273;SDS011;33007;49.082;19.306;2022-09-21T11:57:24;1.42;;;1.30;;
47273;SDS011;33007;49.082;19.306;2022-09-21T12:05:49;1.65;;;1.55;;
47273;SDS011;33007;49.082;19.306;2022-09-21T12:08:42;3.75;;;2.20;;
47273;SDS011;33007;49.082;19.306;2022-09-21T12:11:36;1.67;;;1.58;;
47273;SDS011;33007;49.082;19.306;2022-09-21T12:22:25;2.38;;;1.90;;
47273;SDS011;33007;49.082;19.306;2022-09-21T12:30:31;1.85;;;1.67;;
47273;SDS011;33007;49.082;19.306;2022-09-21T12:33:05;1.92;;;1.70;;
47273;SDS011;33007;49.082;19.306;2022-09-21T12:35:48;1.90;;;1.17;;
47273;SDS011;33007;49.082;19.306;2022-09-21T12:46:24;1.23;;;1.00;;
47273;SDS011;33007;49.082;19.306;2022-09-21T12:49:00;0.70;;;0.70;;
47273;SDS011;33007;49.082;19.306;2022-09-21T12:51:40;2.15;;;0.85;;
47273;SDS011;33007;49.082;19.306;2022-09-21T12:54:17;1.25;;;1.00;;
47273;SDS011;33007;49.082;19.306;2022-09-21T12:57:13;3.10;;;0.77;;
47273;SDS011;33007;49.082;19.306;2022-09-21T12:59:57;1.45;;;1.13;;
47273;SDS011;33007;49.082;19.306;2022-09-21T13:02:32;4.97;;;1.38;;
47273;SDS011;33007;49.082;19.306;2022-09-21T13:12:52;2.80;;;1.25;;
47273;SDS011;33007;49.082;19.306;2022-09-21T13:15:27;3.17;;;1.40;;
47273;SDS011;33007;49.082;19.306;2022-09-21T13:17:56;2.80;;;1.40;;
47273;SDS011;33007;49.082;19.306;2022-09-21T13:20:24;4.57;;;1.60;;
47273;SDS011;33007;49.082;19.306;2022-09-21T13:22:56;2.92;;;1.30;;
47273;SDS011;33007;49.082;19.306;2022-09-21T13:25:25;4.38;;;1.80;;
47273;SDS011;33007;49.082;19.306;2022-09-21T13:28:01;9.00;;;2.13;;
47273;SDS011;33007;49.082;19.306;2022-09-21T13:30:39;3.22;;;1.70;;
47273;SDS011;33007;49.082;19.306;2022-09-21T13:38:33;2.87;;;1.80;;
47273;SDS011;33007;49.082;19.306;2022-09-21T13:51:26;6.50;;;2.33;;
47273;SDS011;33007;49.082;19.306;2022-09-21T13:53:57;6.38;;;2.33;;
47273;SDS011;33007;49.082;19.306;2022-09-21T13:56:25;5.07;;;1.92;;
47273;SDS011;33007;49.082;19.306;2022-09-21T13:58:53;5.55;;;2.10;;
47273;SDS011;33007;49.082;19.306;2022-09-21T14:01:39;2.53;;;1.95;;
47273;SDS011;33007;49.082;19.306;2022-09-21T14:04:14;5.20;;;1.98;;
47273;SDS011;33007;49.082;19.306;2022-09-21T14:06:51;3.70;;;2.05;;
47273;SDS011;33007;49.082;19.306;2022-09-21T14:09:21;4.60;;;2.40;;
47273;SDS011;33007;49.082;19.306;2022-09-21T14:11:52;5.78;;;2.47;;
47273;SDS011;33007;49.082;19.306;2022-09-21T14:14:27;4.45;;;2.50;;
47273;SDS011;33007;49.082;19.306;2022-09-21T14:17:01;3.80;;;2.70;;
47273;SDS011;33007;49.082;19.306;2022-09-21T14:29:50;5.25;;;2.40;;
47273;SDS011;33007;49.082;19.306;2022-09-21T14:32:18;2.35;;;2.05;;
47273;SDS011;33007;49.082;19.306;2022-09-21T14:34:48;3.33;;;2.37;;
47273;SDS011;33007;49.082;19.306;2022-09-21T14:39:44;4.68;;;2.65;;
47273;SDS011;33007;49.082;19.306;2022-09-21T14:42:14;4.47;;;2.80;;
47273;SDS011;33007;49.082;19.306;2022-09-21T15:02:53;10.73;;;7.10;;
47273;SDS011;33007;49.082;19.306;2022-09-21T15:05:33;10.70;;;6.75;;
47273;SDS011;33007;49.082;19.306;2022-09-21T15:11:16;5.22;;;4.13;;
47273;SDS011;33007;49.082;19.306;2022-09-21T15:16:49;5.72;;;3.40;;
47273;SDS011;33007;49.082;19.306;2022-09-21T15:21:47;3.30;;;3.00;;
47273;SDS011;33007;49.082;19.306;2022-09-21T15:24:27;4.22;;;3.10;;
47273;SDS011;33007;49.082;19.306;2022-09-21T15:27:10;3.85;;;3.35;;
47273;SDS011;33007;49.082;19.306;2022-09-21T15:29:38;3.05;;;2.70;;
47273;SDS011;33007;49.082;19.306;2022-09-21T15:32:18;4.43;;;2.90;;
47273;SDS011;33007;49.082;19.306;2022-09-21T15:37:40;3.47;;;3.03;;
47273;SDS011;33007;49.082;19.306;2022-09-21T15:40:14;3.58;;;2.72;;
47273;SDS011;33007;49.082;19.306;2022-09-21T15:42:57;3.60;;;3.10;;
47273;SDS011;33007;49.082;19.306;2022-09-21T15:45:50;3.78;;;3.28;;
47273;SDS011;33007;49.082;19.306;2022-09-21T15:48:18;2.67;;;2.47;;
47273;SDS011;33007;49.082;19.306;2022-09-21T15:50:45;2.50;;;2.30;;
47273;SDS011;33007;49.082;19.306;2022-09-21T15:53:17;2.77;;;2.43;;
47273;SDS011;33007;49.082;19.306;2022-09-21T15:55:50;3.97;;;2.80;;
47273;SDS011;33007;49.082;19.306;2022-09-21T15:58:22;3.42;;;2.55;;
47273;SDS011;33007;49.082;19.306;2022-09-21T16:01:10;2.83;;;2.47;;
47273;SDS011;33007;49.082;19.306;2022-09-21T16:03:39;2.85;;;2.53;;
47273;SDS011;33007;49.082;19.306;2022-09-21T16:08:52;4.82;;;3.30;;
47273;SDS011;33007;49.082;19.306;2022-09-21T16:11:19;4.28;;;2.92;;
47273;SDS011;33007;49.082;19.306;2022-09-21T16:17:02;2.95;;;2.60;;
47273;SDS011;33007;49.082;19.306;2022-09-21T16:22:23;6.38;;;4.07;;
47273;SDS011;33007;49.082;19.306;2022-09-21T16:28:03;10.55;;;8.18;;
47273;SDS011;33007;49.082;19.306;2022-09-21T16:35:58;4.45;;;2.65;;
47273;SDS011;33007;49.082;19.306;2022-09-21T16:38:28;3.50;;;2.92;;
47273;SDS011;33007;49.082;19.306;2022-09-21T16:40:54;3.97;;;3.10;;
47273;SDS011;33007;49.082;19.306;2022-09-21T16:43:21;4.78;;;2.95;;
47273;SDS011;33007;49.082;19.306;2022-09-21T16:45:48;3.88;;;2.42;;
47273;SDS011;33007;49.082;19.306;2022-09-21T16:48:14;2.90;;;2.50;;
47273;SDS011;33007;49.082;19.306;2022-09-21T16:50:39;6.35;;;2.63;;
47273;SDS011;33007;49.082;19.306;2022-09-21T16:53:07;4.43;;;3.08;;
47273;SDS011;33007;49.082;19.306;2022-09-21T16:55:33;208.25;;;18.27;;
47273;SDS011;33007;49.082;19.306;2022-09-21T17:00:48;3.78;;;2.50;;
47273;SDS011;33007;49.082;19.306;2022-09-21T17:03:17;3.70;;;2.88;;
47273;SDS011;33007;49.082;19.306;2022-09-21T17:05:43;3.13;;;2.40;;
47273;SDS011;33007;49.082;19.306;2022-09-21T17:08:10;5.57;;;2.90;;
47273;SDS011;33007;49.082;19.306;2022-09-21T17:10:36;5.65;;;4.35;;
47273;SDS011;33007;49.082;19.306;2022-09-21T17:13:10;7.15;;;5.57;;
47273;SDS011;33007;49.082;19.306;2022-09-21T17:15:43;19.23;;;12.50;;
47273;SDS011;33007;49.082;19.306;2022-09-21T17:18:11;23.17;;;15.63;;
47273;SDS011;33007;49.082;19.306;2022-09-21T17:20:41;33.90;;;17.10;;
47273;SDS011;33007;49.082;19.306;2022-09-21T17:23:08;20.65;;;16.15;;
47273;SDS011;33007;49.082;19.306;2022-09-21T17:25:34;19.65;;;13.80;;
47273;SDS011;33007;49.082;19.306;2022-09-21T17:28:01;15.05;;;12.23;;
47273;SDS011;33007;49.082;19.306;2022-09-21T17:30:35;15.68;;;12.43;;
47273;SDS011;33007;49.082;19.306;2022-09-21T17:33:02;12.65;;;10.23;;
47273;SDS011;33007;49.082;19.306;2022-09-21T17:35:38;17.15;;;11.77;;
47273;SDS011;33007;49.082;19.306;2022-09-21T17:38:06;12.77;;;9.88;;
47273;SDS011;33007;49.082;19.306;2022-09-21T17:40:32;11.98;;;8.65;;
47273;SDS011;33007;49.082;19.306;2022-09-21T17:43:10;11.48;;;6.60;;
47273;SDS011;33007;49.082;19.306;2022-09-21T17:45:48;9.50;;;5.50;;
47273;SDS011;33007;49.082;19.306;2022-09-21T17:48:28;41.63;;;6.22;;
47273;SDS011;33007;49.082;19.306;2022-09-21T17:50:54;7.55;;;4.80;;
47273;SDS011;33007;49.082;19.306;2022-09-21T17:53:20;7.47;;;4.78;;
47273;SDS011;33007;49.082;19.306;2022-09-21T17:56:24;12.07;;;6.30;;
47273;SDS011;33007;49.082;19.306;2022-09-21T17:59:02;12.25;;;7.30;;
47273;SDS011;33007;49.082;19.306;2022-09-21T18:04:04;14.45;;;11.25;;
47273;SDS011;33007;49.082;19.306;2022-09-21T18:06:31;13.50;;;10.85;;
47273;SDS011;33007;49.082;19.306;2022-09-21T18:08:58;13.18;;;10.27;;
47273;SDS011;33007;49.082;19.306;2022-09-21T18:14:18;12.07;;;8.90;;
47273;SDS011;33007;49.082;19.306;2022-09-21T18:25:31;11.65;;;9.43;;
47273;SDS011;33007;49.082;19.306;2022-09-21T18:28:01;12.15;;;8.57;;
47273;SDS011;33007;49.082;19.306;2022-09-21T18:30:37;12.35;;;8.35;;
47273;SDS011;33007;49.082;19.306;2022-09-21T18:33:18;9.43;;;8.15;;
47273;SDS011;33007;49.082;19.306;2022-09-21T18:38:32;12.30;;;8.77;;
47273;SDS011;33007;49.082;19.306;2022-09-21T18:46:30;12.65;;;8.82;;
47273;SDS011;33007;49.082;19.306;2022-09-21T18:54:38;10.52;;;7.65;;
47273;SDS011;33007;49.082;19.306;2022-09-21T18:57:11;12.23;;;7.97;;
47273;SDS011;33007;49.082;19.306;2022-09-21T18:59:38;11.13;;;8.70;;
47273;SDS011;33007;49.082;19.306;2022-09-21T19:02:11;15.23;;;9.45;;
47273;SDS011;33007;49.082;19.306;2022-09-21T19:04:40;18.15;;;12.15;;
47273;SDS011;33007;49.082;19.306;2022-09-21T19:07:23;14.63;;;11.10;;
47273;SDS011;33007;49.082;19.306;2022-09-21T19:15:55;15.70;;;12.52;;
47273;SDS011;33007;49.082;19.306;2022-09-21T19:18:29;15.60;;;12.33;;
47273;SDS011;33007;49.082;19.306;2022-09-21T19:24:06;15.23;;;12.48;;
47273;SDS011;33007;49.082;19.306;2022-09-21T19:29:34;9.25;;;6.35;;
47273;SDS011;33007;49.082;19.306;2022-09-21T19:32:17;7.28;;;5.63;;
47273;SDS011;33007;49.082;19.306;2022-09-21T19:34:53;6.32;;;5.55;;
47273;SDS011;33007;49.082;19.306;2022-09-21T19:37:20;6.53;;;5.53;;
47273;SDS011;33007;49.082;19.306;2022-09-21T19:39:46;7.00;;;5.05;;
47273;SDS011;33007;49.082;19.306;2022-09-21T19:42:16;6.63;;;5.05;;
47273;SDS011;33007;49.082;19.306;2022-09-21T19:45:13;5.85;;;4.97;;